createdAt,value
2022-12-18T00:02:15.483Z,-2.10
2022-12-18T00:04:42.506Z,-2.10
2022-12-18T00:07:09.488Z,-2.10
2022-12-18T00:09:39.494Z,-2.10
2022-12-18T00:14:45.770Z,-2.20
2022-12-18T00:17:12.705Z,-2.20
2022-12-18T00:19:39.753Z,-2.30
2022-12-18T00:22:07.509Z,-2.30
2022-12-18T00:24:34.466Z,-2.30
2022-12-18T00:27:01.417Z,-2.20
2022-12-18T00:29:28.465Z,-2.10
2022-12-18T00:31:55.522Z,-2.10
2022-12-18T00:34:22.576Z,-2.10
2022-12-18T00:36:50.021Z,-2.10
2022-12-18T00:39:17.050Z,-2.10
2022-12-18T00:42:03.863Z,-2.10
2022-12-18T00:44:32.052Z,-2.10
2022-12-18T00:46:59.397Z,-2.20
2022-12-18T00:49:26.391Z,-2.10
2022-12-18T00:51:55.940Z,-2.10
2022-12-18T00:54:22.896Z,-2.10
2022-12-18T00:56:50.566Z,-2.10
2022-12-18T00:59:18.223Z,-2.10
2022-12-18T01:01:45.800Z,-2.10
2022-12-18T01:04:12.978Z,-2.10
2022-12-18T01:06:39.869Z,-2.10
2022-12-18T01:09:07.340Z,-2.10
2022-12-18T01:11:37.065Z,-2.10
2022-12-18T01:14:04.965Z,-2.10
2022-12-18T01:16:32.144Z,-2.10
2022-12-18T01:18:59.152Z,-2.10
2022-12-18T01:21:27.788Z,-2.10
2022-12-18T01:23:55.373Z,-2.20
2022-12-18T01:26:24.378Z,-2.30
2022-12-18T01:28:51.445Z,-2.20
2022-12-18T01:31:18.931Z,-2.30
2022-12-18T01:33:49.826Z,-2.30
2022-12-18T01:36:20.673Z,-2.30
2022-12-18T01:38:47.845Z,-2.20
2022-12-18T01:41:14.953Z,-2.30
2022-12-18T01:43:42.891Z,-2.20
2022-12-18T01:46:10.410Z,-2.20
2022-12-18T01:48:37.542Z,-2.30
2022-12-18T01:51:04.759Z,-2.30
2022-12-18T01:53:31.818Z,-2.30
2022-12-18T01:55:58.848Z,-2.30
2022-12-18T01:58:30.363Z,-2.40
2022-12-18T02:00:57.624Z,-2.40
2022-12-18T02:03:24.643Z,-2.40
2022-12-18T02:06:14.960Z,-2.40
2022-12-18T02:08:49.828Z,-2.30
2022-12-18T02:11:23.330Z,-2.40
2022-12-18T02:14:09.582Z,-2.40
2022-12-18T02:16:39.609Z,-2.40
2022-12-18T02:19:09.044Z,-2.40
2022-12-18T02:21:38.764Z,-2.30
2022-12-18T02:24:05.706Z,-2.40
2022-12-18T02:26:36.440Z,-2.40
2022-12-18T02:29:13.159Z,-2.40
2022-12-18T02:31:41.549Z,-2.40
2022-12-18T02:34:08.539Z,-2.40
2022-12-18T02:36:39.338Z,-2.30
2022-12-18T02:39:06.422Z,-2.40
2022-12-18T02:41:33.419Z,-2.30
2022-12-18T02:44:02.704Z,-2.40
2022-12-18T02:46:42.161Z,-2.40
2022-12-18T02:49:21.196Z,-2.40
2022-12-18T02:51:53.981Z,-2.40
2022-12-18T02:54:27.582Z,-2.30
2022-12-18T02:56:59.054Z,-2.40
2022-12-18T02:59:36.549Z,-2.40
2022-12-18T03:02:23.930Z,-2.40
2022-12-18T03:05:07.171Z,-2.30
2022-12-18T03:07:36.217Z,-2.30
2022-12-18T03:10:06.270Z,-2.40
2022-12-18T03:12:37.070Z,-2.40
2022-12-18T03:15:05.758Z,-2.40
2022-12-18T03:17:33.361Z,-2.40
2022-12-18T03:20:08.045Z,-2.40
2022-12-18T03:22:35.806Z,-2.40
2022-12-18T03:25:04.293Z,-2.40
2022-12-18T03:27:31.364Z,-2.40
2022-12-18T03:30:10.918Z,-2.40
2022-12-18T03:32:45.092Z,-2.40
2022-12-18T03:35:13.098Z,-2.40
2022-12-18T03:37:40.769Z,-2.40
2022-12-18T03:40:08.291Z,-2.40
2022-12-18T03:42:41.476Z,-2.40
2022-12-18T03:45:10.989Z,-2.30
2022-12-18T03:47:54.146Z,-2.40
2022-12-18T03:50:25.440Z,-2.40
2022-12-18T03:52:59.286Z,-2.30
2022-12-18T03:55:27.805Z,-2.40
2022-12-18T03:57:59.917Z,-2.40
2022-12-18T04:00:31.570Z,-2.40
2022-12-18T04:03:06.371Z,-2.40
2022-12-18T04:05:44.755Z,-2.40
2022-12-18T04:08:12.413Z,-2.40
2022-12-18T04:10:44.014Z,-2.50
2022-12-18T04:13:11.618Z,-2.40
2022-12-18T04:15:38.684Z,-2.50
2022-12-18T04:18:09.583Z,-2.40
2022-12-18T04:20:40.334Z,-2.40
2022-12-18T04:23:08.331Z,-2.40
2022-12-18T04:25:35.349Z,-2.50
2022-12-18T04:28:08.984Z,-2.40
2022-12-18T04:30:38.543Z,-2.40
2022-12-18T04:33:09.704Z,-2.40
2022-12-18T04:35:36.635Z,-2.40
2022-12-18T04:38:03.579Z,-2.40
2022-12-18T04:40:30.739Z,-2.40
2022-12-18T04:42:58.199Z,-2.40
2022-12-18T04:45:25.234Z,-2.50
2022-12-18T04:47:52.192Z,-2.50
2022-12-18T04:50:19.167Z,-2.40
2022-12-18T04:52:46.131Z,-2.40
2022-12-18T04:55:13.862Z,-2.40
2022-12-18T04:57:40.788Z,-2.40
2022-12-18T05:00:08.146Z,-2.40
2022-12-18T05:02:35.140Z,-2.40
2022-12-18T05:05:02.245Z,-2.40
2022-12-18T05:07:29.176Z,-2.50
2022-12-18T05:09:56.123Z,-2.50
2022-12-18T05:12:25.788Z,-2.50
2022-12-18T05:14:52.780Z,-2.50
2022-12-18T05:17:19.823Z,-2.50
2022-12-18T05:19:46.841Z,-2.60
2022-12-18T05:22:13.823Z,-2.50
2022-12-18T05:24:40.782Z,-2.50
2022-12-18T05:27:07.774Z,-2.50
2022-12-18T05:29:34.759Z,-2.50
2022-12-18T05:32:01.740Z,-2.50
2022-12-18T05:34:28.683Z,-2.50
2022-12-18T05:36:55.637Z,-2.50
2022-12-18T05:39:22.609Z,-2.40
2022-12-18T05:41:49.541Z,-2.40
2022-12-18T05:44:16.458Z,-2.40
2022-12-18T05:46:43.609Z,-2.40
2022-12-18T05:49:10.741Z,-2.30
2022-12-18T05:51:37.791Z,-2.30
2022-12-18T05:54:04.683Z,-2.40
2022-12-18T05:56:32.714Z,-2.40
2022-12-18T05:58:59.956Z,-2.40
2022-12-18T06:01:27.490Z,-2.40
2022-12-18T06:03:54.676Z,-2.40
2022-12-18T06:06:23.552Z,-2.40
2022-12-18T06:08:50.605Z,-2.40
2022-12-18T06:11:18.500Z,-2.40
2022-12-18T06:13:45.542Z,-2.40
2022-12-18T06:16:12.649Z,-2.50
2022-12-18T06:18:39.739Z,-2.40
2022-12-18T06:21:06.742Z,-2.40
2022-12-18T06:23:33.705Z,-2.40
2022-12-18T06:26:04.263Z,-2.40
2022-12-18T06:28:31.243Z,-2.40
2022-12-18T06:30:58.229Z,-2.40
2022-12-18T06:33:27.120Z,-2.40
2022-12-18T06:35:59.414Z,-2.40
2022-12-18T06:38:27.994Z,-2.40
2022-12-18T06:40:54.928Z,-2.40
2022-12-18T06:43:21.920Z,-2.40
2022-12-18T06:45:53.681Z,-2.40
2022-12-18T06:48:21.081Z,-2.30
2022-12-18T06:50:48.031Z,-2.40
2022-12-18T06:53:15.001Z,-2.40
2022-12-18T06:55:42.249Z,-2.40
2022-12-18T06:58:09.215Z,-2.30
2022-12-18T07:00:38.261Z,-2.30
2022-12-18T07:03:05.244Z,-2.40
2022-12-18T07:05:32.272Z,-2.40
2022-12-18T07:07:59.440Z,-2.40
2022-12-18T07:10:26.460Z,-2.40
2022-12-18T07:12:53.492Z,-2.40
2022-12-18T07:15:20.463Z,-2.40
2022-12-18T07:17:47.434Z,-2.40
2022-12-18T07:20:14.451Z,-2.40
2022-12-18T07:22:41.528Z,-2.40
2022-12-18T07:25:08.568Z,-2.40
2022-12-18T07:27:35.573Z,-2.40
2022-12-18T07:30:02.850Z,-2.40
2022-12-18T07:32:30.120Z,-2.30
2022-12-18T07:34:57.048Z,-2.30
2022-12-18T07:37:24.099Z,-2.20
2022-12-18T07:39:51.008Z,-2.30
2022-12-18T07:42:33.750Z,-2.30
2022-12-18T07:45:01.333Z,-2.30
2022-12-18T07:47:28.869Z,-2.30
2022-12-18T07:49:56.449Z,-2.20
2022-12-18T07:52:26.139Z,-2.20
2022-12-18T07:54:53.378Z,-2.20
2022-12-18T07:57:41.695Z,-2.20
2022-12-18T08:00:08.282Z,-2.20
2022-12-18T08:02:39.243Z,-2.20
2022-12-18T08:05:06.413Z,-2.20
2022-12-18T08:07:34.116Z,-2.20
2022-12-18T08:10:01.075Z,-2.20
2022-12-18T08:12:27.929Z,-2.20
2022-12-18T08:14:54.871Z,-2.10
2022-12-18T08:17:21.736Z,-2.20
2022-12-18T08:19:48.702Z,-2.20
2022-12-18T08:22:15.686Z,-2.20
2022-12-18T08:24:42.759Z,-2.20
2022-12-18T08:29:56.821Z,-2.20
2022-12-18T08:32:24.092Z,-2.30
2022-12-18T08:34:51.114Z,-2.30
2022-12-18T08:37:18.014Z,-2.30
2022-12-18T08:39:45.005Z,-2.40
2022-12-18T08:42:30.572Z,-2.40
2022-12-18T08:44:57.951Z,-2.40
2022-12-18T08:47:24.927Z,-2.30
2022-12-18T08:49:51.888Z,-2.20
2022-12-18T08:52:18.821Z,-2.20
2022-12-18T08:54:45.773Z,-2.20
2022-12-18T08:57:12.700Z,-2.20
2022-12-18T08:59:39.616Z,-2.10
2022-12-18T09:02:06.711Z,-2.10
2022-12-18T09:04:33.720Z,-2.10
2022-12-18T09:07:00.673Z,-2.10
2022-12-18T09:09:27.943Z,-2.00
2022-12-18T09:11:54.894Z,-1.90
2022-12-18T09:14:21.873Z,-1.90
2022-12-18T09:16:48.869Z,-1.90
2022-12-18T09:19:15.898Z,-1.80
2022-12-18T09:21:47.741Z,-1.70
2022-12-18T09:24:15.325Z,-1.70
2022-12-18T09:26:43.348Z,-1.70
2022-12-18T09:29:13.836Z,-1.70
2022-12-18T09:31:41.739Z,-1.80
2022-12-18T09:34:08.753Z,-1.80
2022-12-18T09:36:35.700Z,-1.80
2022-12-18T09:39:07.544Z,-1.80
2022-12-18T09:41:38.494Z,-1.80
2022-12-18T09:44:06.775Z,-1.80
2022-12-18T09:46:37.992Z,-1.80
2022-12-18T09:49:06.947Z,-1.70
2022-12-18T09:51:35.339Z,-1.70
2022-12-18T09:54:03.471Z,-1.70
2022-12-18T09:56:30.700Z,-1.70
2022-12-18T09:59:01.340Z,-1.70
2022-12-18T10:01:36.375Z,-1.70
2022-12-18T10:04:06.211Z,-1.70
2022-12-18T10:06:35.895Z,-1.70
2022-12-18T10:09:04.987Z,-1.60
2022-12-18T10:11:55.102Z,-1.60
2022-12-18T10:14:28.029Z,-1.70
2022-12-18T10:17:14.916Z,-1.70
2022-12-18T10:19:52.802Z,-1.70
2022-12-18T10:22:19.660Z,-1.70
2022-12-18T10:24:55.713Z,-1.70
2022-12-18T10:27:24.468Z,-1.60
2022-12-18T10:29:51.520Z,-1.60
2022-12-18T10:32:19.382Z,-1.50
2022-12-18T10:34:47.376Z,-1.50
2022-12-18T10:37:16.661Z,-1.40
2022-12-18T10:39:43.606Z,-1.40
2022-12-18T10:42:19.986Z,-1.40
2022-12-18T10:44:46.968Z,-1.40
2022-12-18T10:47:15.817Z,-1.50
2022-12-18T10:49:52.272Z,-1.40
2022-12-18T10:52:20.344Z,-1.40
2022-12-18T10:54:49.216Z,-1.40
2022-12-18T10:57:17.107Z,-1.40
2022-12-18T10:59:51.410Z,-1.30
2022-12-18T11:02:37.638Z,-1.30
2022-12-18T11:05:23.421Z,-1.20
2022-12-18T11:07:55.183Z,-1.20
2022-12-18T11:10:22.958Z,-1.10
2022-12-18T11:12:49.881Z,-1.10
2022-12-18T11:15:17.744Z,-1.10
2022-12-18T11:17:45.100Z,-1.10
2022-12-18T11:20:27.530Z,-1.10
2022-12-18T11:23:01.332Z,-1.10
2022-12-18T11:25:33.008Z,-1.10
2022-12-18T11:28:02.682Z,-1.10
2022-12-18T11:30:36.079Z,-1.20
2022-12-18T11:33:07.676Z,-1.40
2022-12-18T11:35:34.617Z,-1.40
2022-12-18T11:38:12.066Z,-1.50
2022-12-18T11:40:41.287Z,-1.50
2022-12-18T11:43:14.049Z,-1.50
2022-12-18T11:45:49.805Z,-1.50
2022-12-18T11:48:28.013Z,-1.50
2022-12-18T11:50:55.429Z,-1.50
2022-12-18T11:53:22.417Z,-1.50
2022-12-18T11:55:51.413Z,-1.40
2022-12-18T11:58:22.572Z,-1.40
2022-12-18T12:01:04.574Z,-1.50
2022-12-18T12:03:37.703Z,-1.40
2022-12-18T12:06:08.482Z,-1.40
2022-12-18T12:08:39.114Z,-1.40
2022-12-18T12:11:15.118Z,-1.30
2022-12-18T12:13:45.115Z,-1.30
2022-12-18T12:16:30.840Z,-1.30
2022-12-18T12:19:02.628Z,-1.30
2022-12-18T12:21:42.399Z,-1.20
2022-12-18T12:24:18.587Z,-1.20
2022-12-18T12:26:45.487Z,-1.20
2022-12-18T12:29:22.907Z,-1.20
2022-12-18T12:32:02.079Z,-1.10
2022-12-18T12:34:35.518Z,-1.00
2022-12-18T12:37:02.513Z,-0.90
2022-12-18T12:39:31.651Z,-0.70
2022-12-18T12:42:17.129Z,-0.70
2022-12-18T12:47:40.387Z,-0.30
2022-12-18T12:50:08.237Z,0.30
2022-12-18T12:52:45.259Z,0.60
2022-12-18T12:55:17.581Z,0.80
2022-12-18T12:57:47.143Z,1.00
2022-12-18T13:00:15.024Z,1.30
2022-12-18T13:02:50.660Z,1.60
2022-12-18T13:05:18.965Z,2.00
2022-12-18T13:07:51.099Z,2.50
2022-12-18T13:10:20.502Z,2.90
2022-12-18T13:12:56.767Z,3.10
2022-12-18T13:15:26.783Z,3.30
2022-12-18T13:18:06.446Z,3.00
2022-12-18T13:20:34.305Z,2.40
2022-12-18T13:23:01.651Z,1.90
2022-12-18T13:25:38.038Z,1.50
2022-12-18T13:28:15.124Z,1.20
2022-12-18T13:30:42.915Z,0.90
2022-12-18T13:33:18.927Z,0.60
2022-12-18T13:35:46.362Z,0.30
2022-12-18T13:38:32.175Z,0.00
2022-12-18T13:41:00.295Z,-0.30
2022-12-18T13:43:27.288Z,-0.50
2022-12-18T13:46:06.577Z,-0.60
2022-12-18T13:48:34.637Z,-0.70
2022-12-18T13:51:03.180Z,-0.80
2022-12-18T13:53:47.265Z,-0.90
2022-12-18T13:56:20.847Z,-0.90
2022-12-18T13:59:04.049Z,-1.00
2022-12-18T14:01:31.187Z,-1.00
2022-12-18T14:04:11.280Z,-1.00
2022-12-18T14:06:38.303Z,-1.00
2022-12-18T14:09:05.267Z,-1.10
2022-12-18T14:11:36.460Z,-1.10
2022-12-18T14:14:08.313Z,-1.20
2022-12-18T14:16:35.256Z,-1.20
2022-12-18T14:19:15.243Z,-1.30
2022-12-18T14:21:46.215Z,-1.40
2022-12-18T14:24:19.010Z,-1.50
2022-12-18T14:26:47.242Z,-1.60
2022-12-18T14:29:28.434Z,-1.70
2022-12-18T14:32:13.378Z,-1.80
2022-12-18T14:34:56.935Z,-1.90
2022-12-18T14:37:25.211Z,-2.00
2022-12-18T14:39:59.308Z,-2.00
2022-12-18T14:42:29.249Z,-2.10
2022-12-18T14:45:15.233Z,-2.10
2022-12-18T14:47:44.262Z,-2.20
2022-12-18T14:50:14.862Z,-2.20
2022-12-18T14:52:42.050Z,-2.30
2022-12-18T14:55:15.767Z,-2.40
2022-12-18T14:57:45.497Z,-2.40
2022-12-18T15:00:16.530Z,-2.50
2022-12-18T15:02:43.619Z,-2.50
2022-12-18T15:05:13.532Z,-2.60
2022-12-18T15:07:41.616Z,-2.60
2022-12-18T15:10:37.732Z,-2.70
2022-12-18T15:13:04.680Z,-2.70
2022-12-18T15:15:34.569Z,-2.70
2022-12-18T15:18:24.078Z,-2.70
2022-12-18T15:20:54.121Z,-2.80
2022-12-18T15:23:22.672Z,-2.80
2022-12-18T15:25:58.011Z,-2.80
2022-12-18T15:28:28.948Z,-2.90
2022-12-18T15:31:02.535Z,-3.00
2022-12-18T15:33:33.880Z,-3.00
2022-12-18T15:36:01.566Z,-3.00
2022-12-18T15:38:28.509Z,-3.10
2022-12-18T15:40:55.513Z,-3.10
2022-12-18T15:43:35.005Z,-3.10
2022-12-18T15:46:02.768Z,-3.20
2022-12-18T15:48:29.825Z,-3.30
2022-12-18T15:50:57.952Z,-3.30
2022-12-18T15:53:25.651Z,-3.30
2022-12-18T15:56:11.135Z,-3.40
2022-12-18T15:58:38.098Z,-3.40
2022-12-18T16:01:05.223Z,-3.50
2022-12-18T16:03:32.517Z,-3.50
2022-12-18T16:06:01.380Z,-3.50
2022-12-18T16:08:30.170Z,-3.60
2022-12-18T16:10:57.738Z,-3.60
2022-12-18T16:13:24.963Z,-3.70
2022-12-18T16:15:51.912Z,-3.70
2022-12-18T16:18:18.941Z,-3.70
2022-12-18T16:20:46.209Z,-3.70
2022-12-18T16:23:13.163Z,-3.80
2022-12-18T16:25:40.109Z,-3.70
2022-12-18T16:28:07.151Z,-3.80
2022-12-18T16:30:38.685Z,-3.80
2022-12-18T16:33:06.216Z,-3.90
2022-12-18T16:35:34.545Z,-3.90
2022-12-18T16:38:01.495Z,-4.00
2022-12-18T16:40:28.643Z,-4.00
2022-12-18T16:42:55.589Z,-4.00
2022-12-18T16:45:22.531Z,-4.00
2022-12-18T16:47:50.293Z,-4.00
2022-12-18T16:50:17.342Z,-4.10
2022-12-18T16:52:44.289Z,-4.00
2022-12-18T16:55:11.284Z,-4.10
2022-12-18T16:57:38.196Z,-4.00
2022-12-18T17:00:06.206Z,-4.00
2022-12-18T17:02:33.752Z,-4.00
2022-12-18T17:05:01.006Z,-4.00
2022-12-18T17:07:28.834Z,-4.00
2022-12-18T17:09:55.908Z,-4.00
2022-12-18T17:12:23.039Z,-4.00
2022-12-18T17:14:49.977Z,-3.90
2022-12-18T17:17:22.219Z,-4.00
2022-12-18T17:19:50.230Z,-4.00
2022-12-18T17:22:17.179Z,-4.00
2022-12-18T17:24:44.143Z,-4.00
2022-12-18T17:27:11.110Z,-4.00
2022-12-18T17:29:42.445Z,-4.00
2022-12-18T17:32:13.591Z,-4.10
2022-12-18T17:34:40.904Z,-4.10
2022-12-18T17:37:08.253Z,-4.10
2022-12-18T17:39:35.150Z,-4.10
2022-12-18T17:42:02.093Z,-4.20
2022-12-18T17:44:29.026Z,-4.20
2022-12-18T17:46:56.297Z,-4.20
2022-12-18T17:49:23.285Z,-4.20
2022-12-18T17:51:50.243Z,-4.30
2022-12-18T17:54:17.243Z,-4.30
2022-12-18T17:56:44.157Z,-4.20
2022-12-18T17:59:11.687Z,-4.20
2022-12-18T18:01:44.619Z,-4.20
2022-12-18T18:04:12.306Z,-4.10
2022-12-18T18:06:39.596Z,-4.20
2022-12-18T18:09:08.221Z,-4.20
2022-12-18T18:12:01.646Z,-4.20
2022-12-18T18:14:28.709Z,-4.20
2022-12-18T18:16:57.332Z,-4.20
2022-12-18T18:19:29.989Z,-4.20
2022-12-18T18:21:57.009Z,-4.20
2022-12-18T18:24:24.185Z,-4.10
2022-12-18T18:26:51.268Z,-4.10
2022-12-18T18:29:22.047Z,-4.10
2022-12-18T18:31:49.375Z,-4.10
2022-12-18T18:34:18.289Z,-4.10
2022-12-18T18:36:46.356Z,-4.10
2022-12-18T18:39:13.469Z,-4.10
2022-12-18T18:41:40.455Z,-4.10
2022-12-18T18:44:09.301Z,-4.10
2022-12-18T18:46:36.307Z,-4.10
2022-12-18T18:49:03.337Z,-4.10
2022-12-18T18:51:34.854Z,-4.10
2022-12-18T18:54:02.318Z,-4.10
2022-12-18T18:59:16.417Z,-4.10
2022-12-18T19:01:43.929Z,-4.10
2022-12-18T19:04:11.026Z,-4.10
2022-12-18T19:06:38.007Z,-4.10
2022-12-18T19:09:06.696Z,-4.10
2022-12-18T19:11:52.588Z,-4.10
2022-12-18T19:14:20.315Z,-4.20
2022-12-18T19:16:47.330Z,-4.20
2022-12-18T19:19:14.933Z,-4.20
2022-12-18T19:21:42.066Z,-4.20
2022-12-18T19:24:09.420Z,-4.20
2022-12-18T19:26:37.791Z,-4.20
2022-12-18T19:29:05.566Z,-4.20
2022-12-18T19:31:36.066Z,-4.20
2022-12-18T19:34:04.926Z,-4.20
2022-12-18T19:36:32.031Z,-4.20
2022-12-18T19:38:59.847Z,-4.20
2022-12-18T19:41:28.991Z,-4.20
2022-12-18T19:43:58.566Z,-4.20
2022-12-18T19:46:25.580Z,-4.20
2022-12-18T19:48:52.699Z,-4.20
2022-12-18T19:51:23.602Z,-4.20
2022-12-18T19:53:54.975Z,-4.20
2022-12-18T19:56:26.083Z,-4.20
2022-12-18T19:58:53.292Z,-4.20
2022-12-18T20:01:20.647Z,-4.10
2022-12-18T20:03:52.784Z,-4.10
2022-12-18T20:06:21.698Z,-4.10
2022-12-18T20:08:48.598Z,-4.10
2022-12-18T20:11:15.542Z,-4.10
2022-12-18T20:13:42.936Z,-4.00
2022-12-18T20:16:10.845Z,-4.00
2022-12-18T20:18:37.900Z,-4.00
2022-12-18T20:21:08.250Z,-4.00
2022-12-18T20:23:38.018Z,-4.00
2022-12-18T20:26:05.155Z,-3.90
2022-12-18T20:28:34.668Z,-3.90
2022-12-18T20:31:02.065Z,-3.90
2022-12-18T20:33:29.673Z,-3.80
2022-12-18T20:36:03.275Z,-3.80
2022-12-18T20:38:30.938Z,-3.80
2022-12-18T20:41:00.596Z,-3.70
2022-12-18T20:43:27.493Z,-3.70
2022-12-18T20:46:04.083Z,-3.60
2022-12-18T20:48:31.105Z,-3.60
2022-12-18T20:51:02.598Z,-3.50
2022-12-18T20:53:31.411Z,-3.50
2022-12-18T20:55:58.298Z,-3.50
2022-12-18T20:58:25.235Z,-3.50
2022-12-18T21:01:02.227Z,-3.50
2022-12-18T21:03:29.224Z,-3.50
2022-12-18T21:05:56.217Z,-3.40
2022-12-18T21:08:23.167Z,-3.40
2022-12-18T21:10:50.074Z,-3.40
2022-12-18T21:13:17.678Z,-3.30
2022-12-18T21:15:45.638Z,-3.30
2022-12-18T21:18:12.583Z,-3.20
2022-12-18T21:20:39.528Z,-3.20
2022-12-18T21:23:16.377Z,-3.20
2022-12-18T21:25:44.506Z,-3.10
2022-12-18T21:28:13.578Z,-3.10
2022-12-18T21:30:41.001Z,-3.10
2022-12-18T21:33:07.933Z,-3.10
2022-12-18T21:35:34.950Z,-3.10
2022-12-18T21:38:01.981Z,-3.10
2022-12-18T21:40:32.707Z,-3.10
2022-12-18T21:43:18.083Z,-3.10
2022-12-18T21:45:45.073Z,-3.00
2022-12-18T21:48:12.303Z,-3.00
2022-12-18T21:50:39.232Z,-3.00
2022-12-18T21:53:06.169Z,-3.00
2022-12-18T21:55:33.219Z,-2.90
2022-12-18T21:58:00.168Z,-2.90
2022-12-18T22:00:27.120Z,-2.90
2022-12-18T22:03:16.899Z,-2.90
2022-12-18T22:05:41.074Z,-2.90
2022-12-18T22:08:08.041Z,-2.90
2022-12-18T22:10:35.477Z,-2.80
2022-12-18T22:13:02.731Z,-2.80
2022-12-18T22:15:29.696Z,-2.80
2022-12-18T22:17:59.699Z,-2.80
2022-12-18T22:20:27.745Z,-2.80
2022-12-18T22:22:56.247Z,-2.70
2022-12-18T22:25:23.187Z,-2.70
2022-12-18T22:28:08.529Z,-2.70
2022-12-18T22:30:35.598Z,-2.70
2022-12-18T22:33:03.642Z,-2.60
2022-12-18T22:35:30.640Z,-2.60
2022-12-18T22:38:00.700Z,-2.60
2022-12-18T22:40:28.029Z,-2.50
2022-12-18T22:42:56.056Z,-2.50
2022-12-18T22:45:23.252Z,-2.50
2022-12-18T22:47:50.203Z,-2.50
2022-12-18T22:50:17.196Z,-2.50
2022-12-18T22:52:44.185Z,-2.40
2022-12-18T22:55:11.110Z,-2.40
2022-12-18T22:57:38.017Z,-2.40
2022-12-18T23:00:06.661Z,-2.40
2022-12-18T23:02:33.788Z,-2.30
2022-12-18T23:05:00.906Z,-2.30
2022-12-18T23:07:27.895Z,-2.30
2022-12-18T23:10:01.007Z,-2.30
2022-12-18T23:12:28.317Z,-2.30
2022-12-18T23:14:55.411Z,-2.30
2022-12-18T23:17:22.372Z,-2.30
2022-12-18T23:19:49.606Z,-2.30
2022-12-18T23:22:17.002Z,-2.30
2022-12-18T23:24:44.216Z,-2.40
2022-12-18T23:27:11.816Z,-2.40
2022-12-18T23:29:39.622Z,-2.50
2022-12-18T23:32:06.661Z,-2.50
2022-12-18T23:34:33.513Z,-2.50
2022-12-18T23:37:01.249Z,-2.50
2022-12-18T23:39:29.599Z,-2.50
2022-12-18T23:41:57.638Z,-2.60
2022-12-18T23:44:24.782Z,-2.60
2022-12-18T23:46:51.869Z,-2.60
2022-12-18T23:49:18.873Z,-2.60
2022-12-18T23:51:45.883Z,-2.60
2022-12-18T23:54:12.802Z,-2.70
2022-12-18T23:56:39.819Z,-2.70
2022-12-18T23:59:06.962Z,-2.70
